createdAt,value
2023-03-11T00:00:51.786Z,988.5
2023-03-11T00:01:55.395Z,988.5
2023-03-11T00:02:58.235Z,988.5
2023-03-11T00:04:01.050Z,988.5
2023-03-11T00:05:04.319Z,988.6
2023-03-11T00:06:07.685Z,988.6
2023-03-11T00:07:11.522Z,988.6
2023-03-11T00:08:15.051Z,988.7
2023-03-11T00:09:18.144Z,988.7
2023-03-11T00:10:20.896Z,988.8
2023-03-11T00:11:23.775Z,988.7
2023-03-11T00:12:27.405Z,988.7
2023-03-11T00:13:30.479Z,988.8
2023-03-11T00:14:33.202Z,988.8
2023-03-11T00:15:35.714Z,988.8
2023-03-11T00:16:38.751Z,988.9
2023-03-11T00:17:42.090Z,988.9
2023-03-11T00:18:44.018Z,988.9
2023-03-11T00:19:46.460Z,988.9
2023-03-11T00:20:50.548Z,989
2023-03-11T00:21:54.411Z,989.1
2023-03-11T00:22:57.699Z,989.1
2023-03-11T00:24:00.768Z,989.1
2023-03-11T00:25:03.960Z,989.1
2023-03-11T00:26:07.795Z,989.1
2023-03-11T00:27:11.544Z,989.1
2023-03-11T00:28:13.976Z,989.1
2023-03-11T00:29:17.433Z,989.1
2023-03-11T00:30:19.599Z,989.2
2023-03-11T00:31:23.040Z,989.1
2023-03-11T00:32:25.819Z,989.2
2023-03-11T00:33:29.104Z,989.3
2023-03-11T00:34:32.570Z,989.3
2023-03-11T00:35:36.149Z,989.3
2023-03-11T00:36:39.961Z,989.4
2023-03-11T00:37:43.327Z,989.3
2023-03-11T00:38:47.230Z,989.4
2023-03-11T00:39:50.664Z,989.4
2023-03-11T00:40:54.469Z,989.4
2023-03-11T00:41:57.181Z,989.5
2023-03-11T00:43:00.255Z,989.5
2023-03-11T00:44:03.906Z,989.5
2023-03-11T00:45:07.358Z,989.6
2023-03-11T00:46:10.211Z,989.6
2023-03-11T00:47:13.607Z,989.5
2023-03-11T00:48:16.828Z,989.6
2023-03-11T00:49:19.876Z,989.6
2023-03-11T00:50:23.237Z,989.6
2023-03-11T00:51:26.451Z,989.7
2023-03-11T00:52:30.080Z,989.7
2023-03-11T00:53:33.648Z,989.7
2023-03-11T00:54:37.690Z,989.7
2023-03-11T00:55:40.852Z,989.7
2023-03-11T00:56:44.850Z,989.7
2023-03-11T00:57:47.297Z,989.7
2023-03-11T00:58:50.695Z,989.8
2023-03-11T00:59:54.153Z,989.7
2023-03-11T01:00:57.345Z,989.8
2023-03-11T01:02:00.950Z,989.9
2023-03-11T01:03:03.816Z,989.8
2023-03-11T01:04:06.770Z,989.9
2023-03-11T01:05:10.575Z,989.8
2023-03-11T01:06:14.282Z,990
2023-03-11T01:07:18.054Z,990
2023-03-11T01:08:25.542Z,990
2023-03-11T01:09:32.348Z,990
2023-03-11T01:10:38.200Z,990
2023-03-11T01:11:43.942Z,990.1
2023-03-11T01:12:49.009Z,990.1
2023-03-11T01:13:54.062Z,990.1
2023-03-11T01:14:58.021Z,990.2
2023-03-11T01:16:02.924Z,990.1
2023-03-11T01:17:08.515Z,990.2
2023-03-11T01:18:12.230Z,990.2
2023-03-11T01:19:14.979Z,990.2
2023-03-11T01:20:18.066Z,990.2
2023-03-11T01:21:21.051Z,990.2
2023-03-11T01:22:23.776Z,990.3
2023-03-11T01:23:27.244Z,990.3
2023-03-11T01:24:30.069Z,990.3
2023-03-11T01:25:33.985Z,990.4
2023-03-11T01:26:37.496Z,990.4
2023-03-11T01:27:40.225Z,990.4
2023-03-11T01:28:43.954Z,990.4
2023-03-11T01:29:46.553Z,990.4
2023-03-11T01:30:49.740Z,990.5
2023-03-11T01:31:52.999Z,990.5
2023-03-11T01:32:55.998Z,990.5
2023-03-11T01:33:59.415Z,990.5
2023-03-11T01:35:03.038Z,990.5
2023-03-11T01:36:05.113Z,990.5
2023-03-11T01:37:08.793Z,990.5
2023-03-11T01:38:12.243Z,990.6
2023-03-11T01:39:15.221Z,990.6
2023-03-11T01:40:18.320Z,990.6
2023-03-11T01:41:21.550Z,990.6
2023-03-11T01:42:24.737Z,990.6
2023-03-11T01:43:28.111Z,990.7
2023-03-11T01:44:31.508Z,990.7
2023-03-11T01:45:34.961Z,990.7
2023-03-11T01:46:38.093Z,990.7
2023-03-11T01:47:41.374Z,990.7
2023-03-11T01:48:44.505Z,990.7
2023-03-11T01:49:47.134Z,990.8
2023-03-11T01:50:49.685Z,990.8
2023-03-11T01:51:52.751Z,990.8
2023-03-11T01:52:55.765Z,990.9
2023-03-11T01:53:58.490Z,990.9
2023-03-11T01:55:01.871Z,990.9
2023-03-11T01:56:04.594Z,990.9
2023-03-11T01:57:08.034Z,990.8
2023-03-11T01:58:11.873Z,990.9
2023-03-11T01:59:14.382Z,990.9
2023-03-11T02:00:17.488Z,991
2023-03-11T02:01:20.483Z,991
2023-03-11T02:02:23.282Z,991
2023-03-11T02:03:25.448Z,991.1
2023-03-11T02:04:28.247Z,991.1
2023-03-11T02:05:31.468Z,991.1
2023-03-11T02:06:34.321Z,991.1
2023-03-11T02:07:37.116Z,991.1
2023-03-11T02:08:40.526Z,991.1
2023-03-11T02:09:43.517Z,991.2
2023-03-11T02:10:46.223Z,991.2
2023-03-11T02:11:48.958Z,991.3
2023-03-11T02:12:52.375Z,991.2
2023-03-11T02:13:55.891Z,991.4
2023-03-11T02:14:58.879Z,991.3
2023-03-11T02:16:02.679Z,991.3
2023-03-11T02:17:06.230Z,991.4
2023-03-11T02:18:08.947Z,991.4
2023-03-11T02:19:12.302Z,991.4
2023-03-11T02:20:15.303Z,991.4
2023-03-11T02:21:18.766Z,991.4
2023-03-11T02:22:21.558Z,991.5
2023-03-11T02:23:25.024Z,991.5
2023-03-11T02:24:28.282Z,991.4
2023-03-11T02:25:32.221Z,991.5
2023-03-11T02:26:35.897Z,991.4
2023-03-11T02:27:39.367Z,991.5
2023-03-11T02:28:42.859Z,991.5
2023-03-11T02:29:46.085Z,991.4
2023-03-11T02:30:49.352Z,991.5
2023-03-11T02:31:53.571Z,991.5
2023-03-11T02:32:56.787Z,991.5
2023-03-11T02:33:59.579Z,991.6
2023-03-11T02:35:03.030Z,991.6
2023-03-11T02:36:06.781Z,991.6
2023-03-11T02:37:09.947Z,991.6
2023-03-11T02:38:12.491Z,991.7
2023-03-11T02:39:15.319Z,991.7
2023-03-11T02:40:18.063Z,991.7
2023-03-11T02:41:20.665Z,991.7
2023-03-11T02:42:23.422Z,991.7
2023-03-11T02:43:25.728Z,991.8
2023-03-11T02:44:29.294Z,991.8
2023-03-11T02:45:32.766Z,991.8
2023-03-11T02:46:35.648Z,991.9
2023-03-11T02:47:38.337Z,991.9
2023-03-11T02:48:41.254Z,991.9
2023-03-11T02:49:43.547Z,991.9
2023-03-11T02:50:46.968Z,991.9
2023-03-11T02:51:49.835Z,992
2023-03-11T02:52:52.904Z,992
2023-03-11T02:53:56.009Z,992
2023-03-11T02:54:58.650Z,992
2023-03-11T02:56:01.178Z,992.1
2023-03-11T02:57:03.864Z,992.1
2023-03-11T02:58:06.641Z,992.1
2023-03-11T02:59:09.833Z,992.1
2023-03-11T03:00:13.679Z,992.1
2023-03-11T03:01:17.621Z,992.1
2023-03-11T03:02:20.670Z,992.2
2023-03-11T03:03:23.741Z,992.2
2023-03-11T03:04:26.653Z,992.3
2023-03-11T03:05:30.651Z,992.3
2023-03-11T03:06:33.855Z,992.3
2023-03-11T03:07:37.132Z,992.4
2023-03-11T03:08:39.946Z,992.3
2023-03-11T03:09:42.961Z,992.4
2023-03-11T03:10:46.097Z,992.4
2023-03-11T03:11:49.259Z,992.4
2023-03-11T03:12:53.072Z,992.4
2023-03-11T03:13:55.581Z,992.4
2023-03-11T03:14:58.883Z,992.5
2023-03-11T03:16:02.582Z,992.5
2023-03-11T03:17:07.406Z,992.5
2023-03-11T03:18:11.761Z,992.5
2023-03-11T03:19:14.812Z,992.6
2023-03-11T03:20:18.343Z,992.6
2023-03-11T03:21:20.566Z,992.6
2023-03-11T03:22:23.651Z,992.6
2023-03-11T03:23:26.794Z,992.7
2023-03-11T03:24:29.248Z,992.7
2023-03-11T03:25:31.683Z,992.6
2023-03-11T03:26:34.144Z,992.7
2023-03-11T03:27:37.818Z,992.7
2023-03-11T03:28:40.844Z,992.7
2023-03-11T03:29:44.205Z,992.7
2023-03-11T03:30:46.714Z,992.8
2023-03-11T03:31:50.319Z,992.8
2023-03-11T03:32:54.163Z,992.9
2023-03-11T03:33:57.371Z,992.9
2023-03-11T03:35:00.543Z,992.9
2023-03-11T03:36:03.830Z,992.9
2023-03-11T03:37:06.896Z,993
2023-03-11T03:38:09.894Z,993
2023-03-11T03:39:13.124Z,993.1
2023-03-11T03:40:16.777Z,993.1
2023-03-11T03:41:20.184Z,993.1
2023-03-11T03:42:23.564Z,993.1
2023-03-11T03:43:25.720Z,993.1
2023-03-11T03:44:28.712Z,993.1
2023-03-11T03:45:31.428Z,993.1
2023-03-11T03:46:33.923Z,993.1
2023-03-11T03:47:37.631Z,993.1
2023-03-11T03:48:41.447Z,993.1
2023-03-11T03:49:44.503Z,993.1
2023-03-11T03:50:48.264Z,993.2
2023-03-11T03:51:51.813Z,993.2
2023-03-11T03:52:54.981Z,993.2
2023-03-11T03:53:57.878Z,993.3
2023-03-11T03:55:00.851Z,993.3
2023-03-11T03:56:03.567Z,993.3
2023-03-11T03:57:06.557Z,993.4
2023-03-11T03:58:09.712Z,993.4
2023-03-11T03:59:13.107Z,993.4
2023-03-11T04:00:16.105Z,993.4
2023-03-11T04:01:19.399Z,993.5
2023-03-11T04:02:22.142Z,993.5
2023-03-11T04:03:26.022Z,993.4
2023-03-11T04:04:30.321Z,993.5
2023-03-11T04:05:34.104Z,993.5
2023-03-11T04:06:36.889Z,993.5
2023-03-11T04:07:40.275Z,993.5
2023-03-11T04:08:44.374Z,993.5
2023-03-11T04:09:47.492Z,993.6
2023-03-11T04:10:51.225Z,993.6
2023-03-11T04:11:54.221Z,993.6
2023-03-11T04:12:56.439Z,993.6
2023-03-11T04:13:59.824Z,993.7
2023-03-11T04:15:03.273Z,993.6
2023-03-11T04:16:05.813Z,993.7
2023-03-11T04:17:09.748Z,993.7
2023-03-11T04:18:12.673Z,993.7
2023-03-11T04:19:16.602Z,993.7
2023-03-11T04:20:20.344Z,993.7
2023-03-11T04:21:23.703Z,993.8
2023-03-11T04:22:26.546Z,993.8
2023-03-11T04:23:30.265Z,993.8
2023-03-11T04:24:32.977Z,993.8
2023-03-11T04:25:35.779Z,993.9
2023-03-11T04:26:39.230Z,993.9
2023-03-11T04:27:42.966Z,993.9
2023-03-11T04:28:46.124Z,994
2023-03-11T04:29:49.415Z,993.9
2023-03-11T04:30:51.990Z,993.9
2023-03-11T04:31:55.451Z,994
2023-03-11T04:32:58.630Z,994
2023-03-11T04:34:02.048Z,994
2023-03-11T04:35:06.139Z,994.1
2023-03-11T04:36:10.018Z,994.1
2023-03-11T04:37:12.720Z,994.1
2023-03-11T04:38:15.275Z,994.1
2023-03-11T04:39:18.964Z,994.1
2023-03-11T04:40:21.759Z,994.1
2023-03-11T04:41:24.712Z,994.1
2023-03-11T04:42:27.884Z,994.1
2023-03-11T04:43:31.003Z,994.1
2023-03-11T04:44:33.793Z,994.1
2023-03-11T04:45:36.319Z,994.2
2023-03-11T04:46:39.509Z,994.2
2023-03-11T04:47:42.506Z,994.2
2023-03-11T04:48:46.019Z,994.2
2023-03-11T04:49:49.643Z,994.2
2023-03-11T04:50:53.156Z,994.2
2023-03-11T04:51:56.600Z,994.2
2023-03-11T04:52:59.698Z,994.2
2023-03-11T04:54:02.515Z,994.2
2023-03-11T04:55:05.627Z,994.2
2023-03-11T04:56:08.421Z,994.2
2023-03-11T04:57:11.299Z,994.2
2023-03-11T04:58:14.395Z,994.3
2023-03-11T04:59:17.482Z,994.3
2023-03-11T05:00:21.290Z,994.4
2023-03-11T05:01:24.434Z,994.4
2023-03-11T05:02:28.790Z,994.4
2023-03-11T05:03:31.729Z,994.4
2023-03-11T05:04:35.538Z,994.4
2023-03-11T05:05:38.573Z,994.5
2023-03-11T05:06:42.651Z,994.5
2023-03-11T05:07:46.476Z,994.5
2023-03-11T05:08:49.274Z,994.4
2023-03-11T05:09:52.544Z,994.5
2023-03-11T05:10:55.335Z,994.5
2023-03-11T05:11:58.451Z,994.5
2023-03-11T05:13:01.509Z,994.5
2023-03-11T05:14:04.527Z,994.4
2023-03-11T05:15:07.878Z,994.5
2023-03-11T05:16:10.795Z,994.5
2023-03-11T05:17:14.632Z,994.5
2023-03-11T05:18:17.969Z,994.5
2023-03-11T05:19:21.707Z,994.5
2023-03-11T05:20:25.344Z,994.6
2023-03-11T05:21:27.791Z,994.6
2023-03-11T05:22:31.271Z,994.6
2023-03-11T05:23:34.775Z,994.7
2023-03-11T05:24:37.887Z,994.7
2023-03-11T05:25:40.429Z,994.7
2023-03-11T05:26:43.445Z,994.7
2023-03-11T05:27:50.926Z,994.7
2023-03-11T05:28:52.552Z,994.7
2023-03-11T05:29:55.532Z,994.7
2023-03-11T05:30:58.372Z,994.7
2023-03-11T05:32:02.049Z,994.7
2023-03-11T05:33:05.055Z,994.7
2023-03-11T05:34:08.237Z,994.8
2023-03-11T05:35:11.629Z,994.8
2023-03-11T05:36:14.619Z,994.8
2023-03-11T05:37:17.684Z,994.8
2023-03-11T05:38:21.306Z,994.8
2023-03-11T05:39:25.014Z,994.9
2023-03-11T05:40:28.206Z,994.8
2023-03-11T05:41:30.843Z,994.9
2023-03-11T05:42:34.226Z,995
2023-03-11T05:43:37.011Z,994.9
2023-03-11T05:44:40.664Z,995
2023-03-11T05:45:43.834Z,995
2023-03-11T05:46:48.003Z,995
2023-03-11T05:47:51.620Z,995
2023-03-11T05:48:54.882Z,995
2023-03-11T05:49:57.878Z,995
2023-03-11T05:51:01.076Z,995
2023-03-11T05:52:03.493Z,995
2023-03-11T05:53:06.556Z,995
2023-03-11T05:54:10.356Z,995.1
2023-03-11T05:55:14.169Z,995.1
2023-03-11T05:56:16.973Z,995.1
2023-03-11T05:57:20.126Z,995.1
2023-03-11T05:58:23.290Z,995.2
2023-03-11T05:59:26.594Z,995.1
2023-03-11T06:00:29.080Z,995.1
2023-03-11T06:01:32.647Z,995.2
2023-03-11T06:02:35.516Z,995.2
2023-03-11T06:03:39.001Z,995.2
2023-03-11T06:04:42.115Z,995.2
2023-03-11T06:05:45.636Z,995.2
2023-03-11T06:06:49.002Z,995.2
2023-03-11T06:07:51.808Z,995.3
2023-03-11T06:08:55.178Z,995.3
2023-03-11T06:09:59.377Z,995.2
2023-03-11T06:11:03.128Z,995.3
2023-03-11T06:12:06.798Z,995.4
2023-03-11T06:13:09.597Z,995.4
2023-03-11T06:14:12.784Z,995.4
2023-03-11T06:15:16.691Z,995.4
2023-03-11T06:16:19.820Z,995.4
2023-03-11T06:17:23.126Z,995.4
2023-03-11T06:18:26.512Z,995.5
2023-03-11T06:19:29.106Z,995.5
2023-03-11T06:20:32.027Z,995.5
2023-03-11T06:21:35.676Z,995.5
2023-03-11T06:22:40.797Z,995.5
2023-03-11T06:23:43.961Z,995.6
2023-03-11T06:24:47.120Z,995.6
2023-03-11T06:25:50.895Z,995.6
2023-03-11T06:26:54.347Z,995.6
2023-03-11T06:27:57.284Z,995.6
2023-03-11T06:29:00.755Z,995.6
2023-03-11T06:30:04.158Z,995.6
2023-03-11T06:31:07.253Z,995.6
2023-03-11T06:32:11.024Z,995.6
2023-03-11T06:33:14.610Z,995.6
2023-03-11T06:34:17.651Z,995.7
2023-03-11T06:35:21.098Z,995.7
2023-03-11T06:36:24.831Z,995.7
2023-03-11T06:37:27.694Z,995.7
2023-03-11T06:38:30.468Z,995.8
2023-03-11T06:39:33.591Z,995.8
2023-03-11T06:40:37.144Z,995.8
2023-03-11T06:41:40.384Z,995.8
2023-03-11T06:42:43.940Z,995.8
2023-03-11T06:43:46.931Z,995.9
2023-03-11T06:44:49.720Z,995.9
2023-03-11T06:45:52.868Z,996
2023-03-11T06:46:56.029Z,996
2023-03-11T06:47:58.803Z,996
2023-03-11T06:49:01.837Z,996.1
2023-03-11T06:50:04.273Z,996.1
2023-03-11T06:51:08.081Z,996.1
2023-03-11T06:52:10.796Z,996.1
2023-03-11T06:53:13.976Z,996.2
2023-03-11T06:54:16.699Z,996.1
2023-03-11T06:55:19.240Z,996.2
2023-03-11T06:56:22.626Z,996.2
2023-03-11T06:57:26.473Z,996.3
2023-03-11T06:58:30.197Z,996.2
2023-03-11T06:59:33.559Z,996.2
2023-03-11T07:00:36.684Z,996.3
2023-03-11T07:01:39.873Z,996.3
2023-03-11T07:02:42.657Z,996.3
2023-03-11T07:03:46.078Z,996.3
2023-03-11T07:04:49.109Z,996.3
2023-03-11T07:05:52.255Z,996.4
2023-03-11T07:06:55.998Z,996.4
2023-03-11T07:07:58.721Z,996.5
2023-03-11T07:09:02.121Z,996.4
2023-03-11T07:10:05.198Z,996.4
2023-03-11T07:11:09.211Z,996.5
2023-03-11T07:12:12.017Z,996.5
2023-03-11T07:13:15.596Z,996.5
2023-03-11T07:14:21.111Z,996.6
2023-03-11T07:15:25.817Z,996.6
2023-03-11T07:16:29.223Z,996.6
2023-03-11T07:17:32.775Z,996.6
2023-03-11T07:18:36.734Z,996.5
2023-03-11T07:19:39.184Z,996.6
2023-03-11T07:20:42.253Z,996.6
2023-03-11T07:21:45.340Z,996.6
2023-03-11T07:22:48.435Z,996.7
2023-03-11T07:23:51.709Z,996.7
2023-03-11T07:24:54.424Z,996.8
2023-03-11T07:25:57.234Z,996.9
2023-03-11T07:27:00.646Z,996.9
2023-03-11T07:28:04.357Z,996.9
2023-03-11T07:29:07.807Z,996.9
2023-03-11T07:30:11.291Z,996.9
2023-03-11T07:31:14.957Z,997
2023-03-11T07:32:19.042Z,997
2023-03-11T07:33:21.705Z,997
2023-03-11T07:34:24.412Z,997
2023-03-11T07:35:28.125Z,997
2023-03-11T07:36:30.641Z,997.1
2023-03-11T07:37:34.070Z,997.1
2023-03-11T07:38:36.947Z,997.1
2023-03-11T07:39:39.749Z,997.2
2023-03-11T07:40:43.478Z,997.2
2023-03-11T07:41:47.203Z,997.2
2023-03-11T07:42:50.364Z,997.2
2023-03-11T07:43:53.231Z,997.1
2023-03-11T07:44:56.691Z,997.2
2023-03-11T07:46:00.005Z,997.2
2023-03-11T07:47:03.806Z,997.2
2023-03-11T07:48:07.208Z,997.3
2023-03-11T07:49:09.952Z,997.3
2023-03-11T07:50:13.327Z,997.3
2023-03-11T07:51:16.327Z,997.4
2023-03-11T07:52:20.078Z,997.2
2023-03-11T07:53:22.226Z,997.3
2023-03-11T07:54:25.387Z,997.3
2023-03-11T07:55:28.511Z,997.3
2023-03-11T07:56:31.413Z,997.3
2023-03-11T07:57:34.154Z,997.4
2023-03-11T07:58:37.238Z,997.4
2023-03-11T07:59:40.342Z,997.4
2023-03-11T08:00:43.793Z,997.4
2023-03-11T08:01:47.479Z,997.5
2023-03-11T08:02:49.774Z,997.4
2023-03-11T08:03:52.866Z,997.5
2023-03-11T08:04:56.577Z,997.5
2023-03-11T08:05:59.084Z,997.5
2023-03-11T08:07:02.178Z,997.6
2023-03-11T08:08:05.083Z,997.6
2023-03-11T08:09:08.808Z,997.6
2023-03-11T08:10:11.312Z,997.6
2023-03-11T08:11:14.193Z,997.6
2023-03-11T08:12:17.292Z,997.6
2023-03-11T08:13:20.458Z,997.6
2023-03-11T08:14:23.494Z,997.6
2023-03-11T08:15:26.630Z,997.7
2023-03-11T08:16:29.930Z,997.8
2023-03-11T08:17:33.801Z,997.7
2023-03-11T08:18:37.612Z,997.8
2023-03-11T08:19:40.598Z,997.8
2023-03-11T08:20:43.111Z,997.8
2023-03-11T08:21:46.191Z,997.9
2023-03-11T08:22:58.699Z,997.9
2023-03-11T08:24:01.884Z,998
2023-03-11T08:25:08.945Z,998
2023-03-11T08:26:12.001Z,997.9
2023-03-11T08:27:15.234Z,998
2023-03-11T08:28:18.516Z,998
2023-03-11T08:29:21.967Z,997.9
2023-03-11T08:30:25.073Z,998
2023-03-11T08:31:28.560Z,998
2023-03-11T08:32:32.659Z,998
2023-03-11T08:33:36.657Z,998
2023-03-11T08:34:41.102Z,998
2023-03-11T08:35:45.352Z,998.1
2023-03-11T08:36:49.728Z,998
2023-03-11T08:37:53.368Z,998
2023-03-11T08:38:56.848Z,998
2023-03-11T08:40:00.422Z,998
2023-03-11T08:41:03.606Z,998.1
2023-03-11T08:42:07.375Z,998.1
2023-03-11T08:43:09.932Z,998.1
2023-03-11T08:44:12.685Z,998
2023-03-11T08:45:16.677Z,998.1
2023-03-11T08:46:19.761Z,998.1
2023-03-11T08:47:23.506Z,998.1
2023-03-11T08:48:27.761Z,998.1
2023-03-11T08:49:31.881Z,998.1
2023-03-11T08:50:53.673Z,998.1
2023-03-11T08:51:58.012Z,998.2
2023-03-11T08:53:00.853Z,998.1
2023-03-11T08:54:03.915Z,998.3
2023-03-11T08:55:07.733Z,998.2
2023-03-11T08:56:10.165Z,998.2
2023-03-11T08:57:13.581Z,998.2
2023-03-11T08:58:16.744Z,998.3
2023-03-11T08:59:20.192Z,998.3
2023-03-11T09:00:23.022Z,998.3
2023-03-11T09:01:26.090Z,998.3
2023-03-11T09:02:29.283Z,998.3
2023-03-11T09:03:33.208Z,998.3
2023-03-11T09:04:37.042Z,998.3
2023-03-11T09:05:40.267Z,998.3
2023-03-11T09:06:43.424Z,998.3
2023-03-11T09:07:45.602Z,998.3
2023-03-11T09:08:48.602Z,998.3
2023-03-11T09:09:52.063Z,998.3
2023-03-11T09:10:55.280Z,998.3
2023-03-11T09:11:59.233Z,998.3
2023-03-11T09:13:02.286Z,998.3
2023-03-11T09:14:05.641Z,998.3
2023-03-11T09:15:09.001Z,998.4
2023-03-11T09:16:12.194Z,998.4
2023-03-11T09:17:16.392Z,998.4
2023-03-11T09:18:19.842Z,998.4
2023-03-11T09:19:23.578Z,998.4
2023-03-11T09:20:27.257Z,998.5
2023-03-11T09:21:30.635Z,998.4
2023-03-11T09:22:33.914Z,998.4
2023-03-11T09:23:37.016Z,998.5
2023-03-11T09:24:40.620Z,998.5
2023-03-11T09:25:43.081Z,998.5
2023-03-11T09:26:46.294Z,998.5
2023-03-11T09:27:49.633Z,998.5
2023-03-11T09:28:52.344Z,998.5
2023-03-11T09:29:55.141Z,998.5
2023-03-11T09:30:58.182Z,998.6
2023-03-11T09:32:00.907Z,998.6
2023-03-11T09:33:04.261Z,998.6
2023-03-11T09:34:07.921Z,998.7
2023-03-11T09:35:11.428Z,998.6
2023-03-11T09:36:15.562Z,998.7
2023-03-11T09:37:18.852Z,998.6
2023-03-11T09:38:22.248Z,998.7
2023-03-11T09:39:25.726Z,998.7
2023-03-11T09:40:28.866Z,998.6
2023-03-11T09:41:31.926Z,998.6
2023-03-11T09:42:38.035Z,998.6
2023-03-11T09:43:41.334Z,998.6
2023-03-11T09:44:45.421Z,998.7
2023-03-11T09:45:48.597Z,998.6
2023-03-11T09:46:51.596Z,998.7
2023-03-11T09:47:55.606Z,998.8
2023-03-11T09:48:58.041Z,998.7
2023-03-11T09:50:01.499Z,998.7
2023-03-11T09:51:05.621Z,998.7
2023-03-11T09:52:09.362Z,998.7
2023-03-11T09:53:12.623Z,998.8
2023-03-11T09:54:15.416Z,998.8
2023-03-11T09:55:18.117Z,998.8
2023-03-11T09:56:21.211Z,998.8
2023-03-11T09:57:24.361Z,998.9
2023-03-11T09:58:26.893Z,998.9
2023-03-11T09:59:30.269Z,998.9
2023-03-11T10:00:33.164Z,998.9
2023-03-11T10:01:36.667Z,998.9
2023-03-11T10:02:40.222Z,998.9
2023-03-11T10:03:44.073Z,998.9
2023-03-11T10:04:47.466Z,999
2023-03-11T10:05:51.223Z,999
2023-03-11T10:06:55.153Z,999
2023-03-11T10:07:58.768Z,999
2023-03-11T10:09:01.510Z,999
2023-03-11T10:10:03.975Z,999.1
2023-03-11T10:11:06.836Z,999.1
2023-03-11T10:12:09.910Z,999.1
2023-03-11T10:13:13.444Z,999.1
2023-03-11T10:14:16.948Z,999.1
2023-03-11T10:15:20.039Z,999.2
2023-03-11T10:16:23.807Z,999.2
2023-03-11T10:17:27.008Z,999.2
2023-03-11T10:18:29.186Z,999.2
2023-03-11T10:19:32.287Z,999.2
2023-03-11T10:20:35.066Z,999.2
2023-03-11T10:21:38.329Z,999.1
2023-03-11T10:22:42.155Z,999.2
2023-03-11T10:23:45.907Z,999.2
2023-03-11T10:24:49.429Z,999.1
2023-03-11T10:25:52.424Z,999.2
2023-03-11T10:26:55.273Z,999.2
2023-03-11T10:27:57.803Z,999.1
2023-03-11T10:29:00.989Z,999.2
2023-03-11T10:30:03.774Z,999.1
2023-03-11T10:31:06.547Z,999.1
2023-03-11T10:32:10.423Z,999.2
2023-03-11T10:33:14.300Z,999.2
2023-03-11T10:34:17.424Z,999.2
2023-03-11T10:35:20.486Z,999.2
2023-03-11T10:36:23.778Z,999.2
2023-03-11T10:37:48.179Z,999.2
2023-03-11T10:38:53.867Z,999.3
2023-03-11T10:39:57.203Z,999.3
2023-03-11T10:40:59.909Z,999.3
2023-03-11T10:42:02.978Z,999.3
2023-03-11T10:43:06.136Z,999.3
2023-03-11T10:44:09.515Z,999.3
2023-03-11T10:45:12.684Z,999.4
2023-03-11T10:46:16.376Z,999.4
2023-03-11T10:47:19.390Z,999.3
2023-03-11T10:48:22.829Z,999.3
2023-03-11T10:49:26.448Z,999.4
2023-03-11T10:50:28.633Z,999.4
2023-03-11T10:51:31.984Z,999.4
2023-03-11T10:52:35.078Z,999.3
2023-03-11T10:53:37.237Z,999.2
2023-03-11T10:54:41.122Z,999.3
2023-03-11T10:55:44.225Z,999.2
2023-03-11T10:56:47.580Z,999.2
2023-03-11T10:57:50.313Z,999.2
2023-03-11T10:58:53.486Z,999.2
2023-03-11T10:59:56.410Z,999.2
2023-03-11T11:01:00.264Z,999.2
2023-03-11T11:02:03.731Z,999.2
2023-03-11T11:03:06.989Z,999.2
2023-03-11T11:04:09.846Z,999.2
2023-03-11T11:05:13.178Z,999.2
2023-03-11T11:06:16.061Z,999.2
2023-03-11T11:07:19.326Z,999.2
2023-03-11T11:08:22.326Z,999.2
2023-03-11T11:09:27.384Z,999.3
2023-03-11T11:10:31.565Z,999.3
2023-03-11T11:11:35.372Z,999.3
2023-03-11T11:12:38.136Z,999.4
2023-03-11T11:13:40.908Z,999.4
2023-03-11T11:14:44.330Z,999.4
2023-03-11T11:15:47.436Z,999.4
2023-03-11T11:16:49.670Z,999.4
2023-03-11T11:17:53.470Z,999.3
2023-03-11T11:18:56.840Z,999.4
2023-03-11T11:19:59.652Z,999.3
2023-03-11T11:21:03.287Z,999.3
2023-03-11T11:22:06.833Z,999.3
2023-03-11T11:23:10.261Z,999.3
2023-03-11T11:24:12.970Z,999.3
2023-03-11T11:25:16.409Z,999.3
2023-03-11T11:26:20.745Z,999.3
2023-03-11T11:27:23.743Z,999.3
2023-03-11T11:28:27.156Z,999.3
2023-03-11T11:29:30.157Z,999.3
2023-03-11T11:30:33.827Z,999.3
2023-03-11T11:31:37.696Z,999.3
2023-03-11T11:32:41.180Z,999.3
2023-03-11T11:33:44.135Z,999.2
2023-03-11T11:34:47.287Z,999.3
2023-03-11T11:35:50.493Z,999.3
2023-03-11T11:36:54.418Z,999.3
2023-03-11T11:37:57.311Z,999.3
2023-03-11T11:39:00.672Z,999.3
2023-03-11T11:40:04.091Z,999.3
2023-03-11T11:41:07.731Z,999.3
2023-03-11T11:42:11.686Z,999.3
2023-03-11T11:43:15.221Z,999.3
2023-03-11T11:44:18.580Z,999.4
2023-03-11T11:45:22.051Z,999.3
2023-03-11T11:46:25.177Z,999.3
2023-03-11T11:47:28.258Z,999.3
2023-03-11T11:48:31.666Z,999.2
2023-03-11T11:49:34.768Z,999.2
2023-03-11T11:50:37.820Z,999.2
2023-03-11T11:51:41.478Z,999.2
2023-03-11T11:52:45.410Z,999.2
2023-03-11T11:53:49.055Z,999.2
2023-03-11T11:54:52.037Z,999.2
2023-03-11T11:55:55.123Z,999.2
2023-03-11T11:56:58.506Z,999.2
2023-03-11T11:58:02.761Z,999.2
2023-03-11T11:59:06.481Z,999.2
2023-03-11T12:00:09.447Z,999.3
2023-03-11T12:01:12.984Z,999.3
2023-03-11T12:02:16.369Z,999.2
2023-03-11T12:03:19.084Z,999.3
2023-03-11T12:04:22.174Z,999.3
2023-03-11T12:05:25.623Z,999.3
2023-03-11T12:06:29.250Z,999.3
2023-03-11T12:07:32.514Z,999.3
2023-03-11T12:08:35.256Z,999.3
2023-03-11T12:09:38.704Z,999.3
2023-03-11T12:10:41.973Z,999.2
2023-03-11T12:11:44.696Z,999.2
2023-03-11T12:12:47.762Z,999.3
2023-03-11T12:13:51.665Z,999.2
2023-03-11T12:14:54.580Z,999.3
2023-03-11T12:15:58.047Z,999.2
2023-03-11T12:17:04.502Z,999.3
2023-03-11T12:18:07.747Z,999.2
2023-03-11T12:19:11.745Z,999.2
2023-03-11T12:20:15.043Z,999.2
2023-03-11T12:21:17.955Z,999.2
2023-03-11T12:22:21.045Z,999.2
2023-03-11T12:23:24.438Z,999.2
2023-03-11T12:24:27.236Z,999.2
2023-03-11T12:25:30.356Z,999.3
2023-03-11T12:26:34.002Z,999.3
2023-03-11T12:27:37.077Z,999.3
2023-03-11T12:28:40.420Z,999.3
2023-03-11T12:29:44.601Z,999.3
2023-03-11T12:30:47.870Z,999.2
2023-03-11T12:31:51.522Z,999.2
2023-03-11T12:32:55.149Z,999.2
2023-03-11T12:33:58.056Z,999.2
2023-03-11T12:35:01.698Z,999.2
2023-03-11T12:36:04.555Z,999.3
2023-03-11T12:37:08.033Z,999.3
2023-03-11T12:38:10.746Z,999.2
2023-03-11T12:39:13.808Z,999.2
2023-03-11T12:40:16.522Z,999.2
2023-03-11T12:41:21.665Z,999.2
2023-03-11T12:42:24.728Z,999.2
2023-03-11T12:43:28.215Z,999.2
2023-03-11T12:44:31.276Z,999.2
2023-03-11T12:45:35.457Z,999.2
2023-03-11T12:46:38.605Z,999.2
2023-03-11T12:47:41.946Z,999.2
2023-03-11T12:48:44.658Z,999.2
2023-03-11T12:49:48.224Z,999.2
2023-03-11T12:50:51.645Z,999.3
2023-03-11T12:51:54.988Z,999.2
2023-03-11T12:52:58.334Z,999.3
2023-03-11T12:54:01.698Z,999.3
2023-03-11T12:55:04.785Z,999.3
2023-03-11T12:56:08.132Z,999.2
2023-03-11T12:57:10.926Z,999.2
2023-03-11T12:58:14.072Z,999.2
2023-03-11T12:59:17.413Z,999.3
2023-03-11T13:00:21.137Z,999.2
2023-03-11T13:01:25.638Z,999.2
2023-03-11T13:02:29.020Z,999.2
2023-03-11T13:03:32.056Z,999.2
2023-03-11T13:04:34.793Z,999.2
2023-03-11T13:05:38.518Z,999.2
2023-03-11T13:06:41.978Z,999.2
2023-03-11T13:07:45.349Z,999.2
2023-03-11T13:08:48.853Z,999.2
2023-03-11T13:09:51.562Z,999.1
2023-03-11T13:10:54.991Z,999.2
2023-03-11T13:11:57.193Z,999.2
2023-03-11T13:12:59.974Z,999.2
2023-03-11T13:14:02.760Z,999.3
2023-03-11T13:15:05.830Z,999.2
2023-03-11T13:16:08.983Z,999.2
2023-03-11T13:17:13.398Z,999.3
2023-03-11T13:18:16.466Z,999.3
2023-03-11T13:19:20.570Z,999.3
2023-03-11T13:20:27.094Z,999.3
2023-03-11T13:21:29.924Z,999.2
2023-03-11T13:22:33.386Z,999.1
2023-03-11T13:23:37.055Z,999.2
2023-03-11T13:24:40.122Z,999.2
2023-03-11T13:25:43.300Z,999.2
2023-03-11T13:26:46.347Z,999.2
2023-03-11T13:27:49.742Z,999.2
2023-03-11T13:28:53.727Z,999.2
2023-03-11T13:29:56.657Z,999.1
2023-03-11T13:30:59.684Z,999.2
2023-03-11T13:32:03.361Z,999.2
2023-03-11T13:33:07.597Z,999.2
2023-03-11T13:34:11.233Z,999.1
2023-03-11T13:35:14.543Z,999.2
2023-03-11T13:36:17.620Z,999.2
2023-03-11T13:37:20.607Z,999.2
2023-03-11T13:38:23.954Z,999.3
2023-03-11T13:39:26.408Z,999.2
2023-03-11T13:40:29.530Z,999.3